Time;durP1;ratioP1;P1;durP2;ratioP2;P2;SDS_P1;SDS_P2;PMS_P1;PMS_P2;Temp;Humidity;BMP_temperature;BMP_pressure;BME280_temperature;BME280_humidity;BME280_pressure;Samples;Min_cycle;Max_cycle;Signal;HPM_P1;HPM_P2
2022/11/29 00:02:24;;;;;;;;;;;;;;;;;;;;;
2022/11/29 00:13:40;;;;;;;56.15;34.38;;;;;;;;;;5049088;28;20227;-86
2022/11/29 00:16:10;;;;;;;64.53;34.03;;;3.70;99.90;;;;;;5047978;28;20617;-86
2022/11/29 00:18:48;;;;;;;56.30;35.45;;;;;;;;;;5045625;28;20223;-86
2022/11/29 00:21:19;;;;;;;67.13;36.45;;;;;;;;;;5042752;28;20207;-85
2022/11/29 00:26:43;;;;;;;59.88;33.38;;;;;;;;;;5040503;28;20254;-85
2022/11/29 00:29:58;;;;;;;48.97;28.73;;;3.60;99.90;;;;;;5044104;28;20222;-85
2022/11/29 00:32:48;;;;;;;52.65;30.25;;;;;;;;;;5043510;28;20235;-86
2022/11/29 00:35:31;;;;;;;51.72;31.10;;;;;;;;;;5043673;28;20311;-86
2022/11/29 00:48:33;;;;;;;46.08;25.48;;;;;;;;;;4819620;29;20226;-86
2022/11/29 00:51:16;;;;;;;44.75;25.60;;;;;;;;;;5032982;28;20200;-86
2022/11/29 00:54:04;;;;;;;43.78;26.15;;;;;;;;;;5052489;28;20278;-86
2022/11/29 01:12:26;;;;;;;52.13;27.55;;;3.70;99.90;;;;;;4974782;28;20576;-86
2022/11/29 01:24:23;;;;;;;44.30;27.38;;;3.70;99.90;;;;;;4948896;29;20274;-85
2022/11/29 01:36:37;;;;;;;42.78;25.38;;;;;;;;;;5058230;28;20195;-85
2022/11/29 01:39:13;;;;;;;41.13;26.00;;;;;;;;;;5056287;28;20194;-85
2022/11/29 01:42:13;;;;;;;51.22;28.25;;;3.70;99.90;;;;;;5049201;28;20223;-85
2022/11/29 01:45:04;;;;;;;39.53;25.70;;;3.70;99.90;;;;;;5026126;28;20220;-85
2022/11/29 01:48:22;;;;;;;44.97;25.33;;;3.70;99.90;;;;;;5041728;28;20212;-85
2022/11/29 01:51:00;;;;;;;44.78;26.33;;;;;;;;;;5035681;28;20211;-85
2022/11/29 01:53:45;;;;;;;46.60;26.65;;;;;;;;;;5041932;28;20254;-85
2022/11/29 01:56:49;;;;;;;42.20;25.73;;;;;;;;;;5038154;28;20259;-85
2022/11/29 01:59:48;;;;;;;41.20;27.15;;;3.60;99.90;;;;;;5043931;28;20214;-85
2022/11/29 02:02:27;;;;;;;37.75;26.05;;;3.70;99.90;;;;;;5042470;28;20200;-85
2022/11/29 02:39:59;;;;;;;47.78;28.30;;;3.70;99.90;;;;;;4961107;29;20205;-85
2022/11/29 02:43:04;;;;;;;44.45;26.38;;;3.70;99.90;;;;;;5073066;28;20737;-85
2022/11/29 02:46:14;;;;;;;44.13;25.35;;;3.70;99.90;;;;;;5108923;28;20225;-85
2022/11/29 02:52:00;;;;;;;40.90;24.38;;;3.70;99.90;;;;;;5079049;28;20190;-86
2022/11/29 02:54:33;;;;;;;43.28;26.58;;;3.50;99.90;;;;;;5104870;28;20275;-87
2022/11/29 02:57:07;;;;;;;45.78;27.13;;;3.70;99.90;;;;;;5108104;28;20210;-86
2022/11/29 02:59:50;;;;;;;41.00;26.20;;;3.70;99.90;;;;;;5109334;28;20286;-86
2022/11/29 03:02:25;;;;;;;47.60;25.98;;;3.60;99.90;;;;;;5107746;28;20242;-86
2022/11/29 03:05:01;;;;;;;45.42;26.80;;;3.80;99.90;;;;;;5109876;28;20244;-86
2022/11/29 03:07:39;;;;;;;49.25;29.58;;;3.80;99.90;;;;;;5119377;28;20186;-87
2022/11/29 03:10:13;;;;;;;42.00;26.50;;;3.50;99.90;;;;;;5119308;28;20209;-89
2022/11/29 03:15:40;;;;;;;44.60;27.13;;;3.60;99.90;;;;;;5119042;28;20197;-88
2022/11/29 03:18:35;;;;;;;49.97;28.13;;;3.60;99.90;;;;;;5112289;28;20182;-86
2022/11/29 03:21:22;;;;;;;42.63;26.02;;;3.50;99.90;;;;;;5107624;28;20212;-87
2022/11/29 03:23:53;;;;;;;44.03;25.77;;;3.60;99.90;;;;;;5105661;28;20218;-86
2022/11/29 03:26:38;;;;;;;48.83;31.17;;;3.60;99.90;;;;;;5106013;28;20210;-86
2022/11/29 03:29:22;;;;;;;50.03;27.42;;;3.60;99.90;;;;;;5105258;28;20186;-87
2022/11/29 03:32:07;;;;;;;40.40;26.45;;;3.60;99.90;;;;;;5104251;28;20205;-87
2022/11/29 03:35:03;;;;;;;49.67;28.90;;;3.60;99.90;;;;;;5102697;28;20249;-87
2022/11/29 03:37:49;;;;;;;46.50;28.00;;;3.60;99.90;;;;;;5101338;28;20225;-87
2022/11/29 03:40:36;;;;;;;48.13;28.25;;;3.60;99.90;;;;;;5102454;28;20202;-86
2022/11/29 03:43:09;;;;;;;44.88;28.73;;;3.60;99.90;;;;;;5101697;28;20216;-86
2022/11/29 03:45:45;;;;;;;44.00;25.05;;;3.60;99.90;;;;;;5104785;28;20225;-86
2022/11/29 03:48:17;;;;;;;44.45;28.08;;;3.60;99.90;;;;;;5103793;28;20197;-86
2022/11/29 03:50:57;;;;;;;48.50;27.27;;;3.60;99.90;;;;;;5102300;28;20293;-86
2022/11/29 03:53:35;;;;;;;52.72;30.88;;;3.60;99.90;;;;;;5102441;28;20219;-86
2022/11/29 03:56:23;;;;;;;45.38;27.77;;;3.60;99.90;;;;;;5104529;28;20216;-86
2022/11/29 03:59:01;;;;;;;45.80;27.30;;;3.60;99.90;;;;;;5117305;28;20182;-86
2022/11/29 04:01:58;;;;;;;52.47;26.70;;;3.60;99.90;;;;;;5104305;28;20186;-86
2022/11/29 04:05:07;;;;;;;45.28;28.42;;;3.60;99.90;;;;;;5065667;28;20601;-86
2022/11/29 04:08:03;;;;;;;45.55;29.60;;;3.60;99.90;;;;;;5102072;28;20202;-86
2022/11/29 04:10:50;;;;;;;48.22;28.30;;;3.60;99.90;;;;;;5101763;28;20363;-86
2022/11/29 04:13:57;;;;;;;49.92;27.95;;;3.60;99.90;;;;;;5101276;28;20221;-86
2022/11/29 04:16:51;;;;;;;51.67;28.10;;;3.60;99.90;;;;;;5019689;28;20258;-86
2022/11/29 04:20:08;;;;;;;50.60;29.65;;;3.60;99.90;;;;;;5097725;28;20201;-86
2022/11/29 04:23:16;;;;;;;43.38;28.20;;;3.60;99.90;;;;;;5019755;28;20216;-86
2022/11/29 04:26:19;;;;;;;43.92;27.67;;;3.60;99.90;;;;;;5018378;28;20215;-86
2022/11/29 05:16:06;;;;;;;44.95;28.10;;;3.70;99.90;;;;;;5154854;22;20229;-85
2022/11/29 05:18:57;;;;;;;46.17;27.50;;;3.70;99.90;;;;;;5136912;28;20193;-86
2022/11/29 05:21:32;;;;;;;44.63;28.08;;;3.90;99.90;;;;;;5134668;28;20235;-86
2022/11/29 05:24:11;;;;;;;46.65;27.35;;;3.50;99.90;;;;;;5128823;28;20243;-85
2022/11/29 05:26:45;;;;;;;51.75;28.60;;;3.60;99.90;;;;;;5113023;28;20259;-86
2022/11/29 05:29:20;;;;;;;49.35;29.48;;;4.40;99.90;;;;;;5105941;28;20198;-86
2022/11/29 05:32:02;;;;;;;45.22;28.17;;;3.10;99.90;;;;;;5105038;28;20206;-86
2022/11/29 05:34:56;;;;;;;51.05;31.35;;;3.50;99.90;;;;;;5098116;28;20518;-86
2022/11/29 05:37:37;;;;;;;49.58;28.00;;;3.60;99.90;;;;;;5100187;28;20609;-86
2022/11/29 05:40:24;;;;;;;48.45;27.73;;;3.60;99.90;;;;;;5103721;28;20190;-86
2022/11/29 05:43:03;;;;;;;46.10;27.58;;;3.70;99.90;;;;;;5103463;28;20226;-85
2022/11/29 05:45:35;;;;;;;43.35;27.55;;;3.40;99.90;;;;;;5103742;28;20228;-85
2022/11/29 05:48:11;;;;;;;48.33;27.60;;;3.80;99.90;;;;;;5104709;28;20182;-85
2022/11/29 05:50:55;;;;;;;43.55;27.35;;;3.60;99.90;;;;;;5105272;28;20224;-85
2022/11/29 05:53:29;;;;;;;59.88;30.92;;;3.60;99.90;;;;;;5105128;28;20228;-85
2022/11/29 05:56:06;;;;;;;47.80;29.08;;;4.00;99.90;;;;;;5104962;28;20197;-86
2022/11/29 05:58:46;;;;;;;47.10;27.33;;;3.70;99.90;;;;;;5106135;28;20663;-86
2022/11/29 06:01:21;;;;;;;47.05;28.60;;;4.60;99.90;;;;;;5105911;28;20656;-86
2022/11/29 06:04:03;;;;;;;50.70;26.58;;;3.60;99.90;;;;;;5104671;28;20225;-86
2022/11/29 06:13:10;;;;;;;47.30;27.17;;;3.60;99.90;;;;;;5115341;28;20174;-85
2022/11/29 06:19:51;;;;;;;48.80;27.98;;;3.60;99.90;;;;;;5116621;28;20210;-85
2022/11/29 06:22:42;;;;;;;46.20;27.13;;;3.60;99.90;;;;;;5110784;28;20202;-86
2022/11/29 06:25:22;;;;;;;41.95;27.15;;;3.60;99.90;;;;;;5110403;28;20312;-85
2022/11/29 06:28:06;;;;;;;46.72;25.80;;;3.50;99.90;;;;;;5118123;28;20194;-86
2022/11/29 06:30:40;;;;;;;51.35;28.10;;;3.40;99.90;;;;;;5120136;28;20166;-85
2022/11/29 06:33:16;;;;;;;43.55;26.70;;;5.40;99.90;;;;;;5120020;27;20237;-86
2022/11/29 06:35:51;;;;;;;47.25;28.23;;;3.90;99.90;;;;;;5119673;28;20193;-86
2022/11/29 06:38:23;;;;;;;48.17;27.02;;;3.80;99.90;;;;;;5119796;28;20208;-87
2022/11/29 06:40:52;;;;;;;41.70;27.20;;;3.30;99.90;;;;;;5117984;28;20190;-87
2022/11/29 06:43:19;;;;;;;49.15;28.58;;;3.40;99.90;;;;;;5114360;28;20261;-87
2022/11/29 06:45:51;;;;;;;45.10;29.33;;;3.70;99.90;;;;;;5115478;28;20190;-86
2022/11/29 06:48:22;;;;;;;42.50;26.85;;;3.70;99.90;;;;;;5108541;28;20214;-88
2022/11/29 06:50:58;;;;;;;43.00;27.38;;;3.90;99.90;;;;;;5108718;28;20213;-87
2022/11/29 06:53:36;;;;;;;50.65;29.30;;;3.90;99.90;;;;;;5107911;28;20213;-87
2022/11/29 06:56:13;;;;;;;53.92;27.80;;;4.70;99.90;;;;;;5107354;28;20277;-87
2022/11/29 06:58:48;;;;;;;34.78;24.05;;;3.60;99.90;;;;;;5106278;28;20189;-88
2022/11/29 07:01:26;;;;;;;46.33;29.05;;;3.90;99.90;;;;;;5105671;28;20229;-88
2022/11/29 07:04:07;;;;;;;49.72;28.63;;;3.90;99.90;;;;;;5106701;28;20301;-88
2022/11/29 07:06:36;;;;;;;52.03;29.42;;;3.70;99.90;;;;;;5105454;28;20225;-88
2022/11/29 07:09:12;;;;;;;45.97;26.65;;;3.70;99.90;;;;;;5104455;28;20233;-87
2022/11/29 07:11:39;;;;;;;52.83;29.88;;;3.80;99.90;;;;;;5105019;28;20189;-87
2022/11/29 07:14:07;;;;;;;41.45;27.25;;;3.50;99.90;;;;;;5106886;28;20312;-87
2022/11/29 07:16:41;;;;;;;49.00;28.95;;;3.50;99.90;;;;;;5107654;28;20183;-87
2022/11/29 07:19:17;;;;;;;45.15;28.02;;;3.80;99.90;;;;;;5104491;28;20197;-86
2022/11/29 07:21:58;;;;;;;44.08;28.27;;;3.70;99.90;;;;;;5106640;28;20212;-86
2022/11/29 07:24:41;;;;;;;46.75;26.92;;;2.90;99.90;;;;;;5105555;28;20221;-86
2022/11/29 07:27:15;;;;;;;49.13;26.67;;;3.70;99.90;;;;;;5105819;28;20273;-86
2022/11/29 07:29:50;;;;;;;45.85;27.25;;;3.80;99.90;;;;;;5106790;28;20192;-86
2022/11/29 07:32:25;;;;;;;45.45;25.52;;;3.10;99.90;;;;;;5108953;28;20276;-87
2022/11/29 07:35:01;;;;;;;44.05;27.25;;;3.80;99.90;;;;;;5104374;28;20293;-88
2022/11/29 07:37:36;;;;;;;45.20;27.60;;;3.50;99.90;;;;;;5108341;28;20197;-87
2022/11/29 07:40:13;;;;;;;42.40;27.77;;;3.90;99.90;;;;;;5106459;28;20292;-88
2022/11/29 07:42:49;;;;;;;46.05;27.35;;;3.50;99.90;;;;;;5103816;28;20188;-87
2022/11/29 07:45:24;;;;;;;50.20;29.92;;;3.50;99.90;;;;;;5103795;28;20308;-88
2022/11/29 07:47:51;;;;;;;40.30;25.90;;;3.80;99.90;;;;;;5103484;28;20185;-88
2022/11/29 07:50:18;;;;;;;47.95;27.67;;;3.70;99.90;;;;;;5103098;28;20206;-87
2022/11/29 07:52:47;;;;;;;49.55;27.00;;;3.70;99.90;;;;;;5103161;28;20197;-88
2022/11/29 07:55:16;;;;;;;39.50;26.45;;;3.80;99.90;;;;;;5104129;28;20285;-88
2022/11/29 07:57:43;;;;;;;47.60;26.13;;;4.00;99.90;;;;;;5103879;28;20246;-88
2022/11/29 08:00:12;;;;;;;44.42;28.08;;;4.00;99.90;;;;;;5104279;28;20284;-88
2022/11/29 08:02:39;;;;;;;44.20;28.13;;;3.90;99.90;;;;;;5107467;28;20226;-88
2022/11/29 08:05:08;;;;;;;42.90;25.40;;;4.10;99.90;;;;;;5106210;28;20218;-88
2022/11/29 08:07:35;;;;;;;44.33;28.30;;;3.90;99.90;;;;;;5106398;28;20305;-87
2022/11/29 08:10:04;;;;;;;46.75;26.42;;;;;;;;;;5106313;28;20197;-87
2022/11/29 08:12:32;;;;;;;46.13;27.40;;;4.10;99.90;;;;;;5105292;28;20202;-87
2022/11/29 08:14:58;;;;;;;44.83;28.35;;;3.80;99.90;;;;;;5106342;28;20715;-87
2022/11/29 08:17:25;;;;;;;40.65;26.38;;;3.90;99.90;;;;;;5109057;28;20269;-87
2022/11/29 08:19:52;;;;;;;42.20;25.88;;;4.00;99.90;;;;;;5107730;28;20209;-87
2022/11/29 08:22:19;;;;;;;37.33;24.33;;;4.00;99.90;;;;;;5106353;28;20308;-87
2022/11/29 08:24:46;;;;;;;39.03;25.20;;;3.60;99.90;;;;;;5105488;28;20217;-87
2022/11/29 08:27:14;;;;;;;43.28;27.15;;;3.90;99.90;;;;;;5105648;28;20278;-87
2022/11/29 08:29:41;;;;;;;50.63;25.10;;;4.00;99.90;;;;;;5106597;28;20289;-87
2022/11/29 08:32:09;;;;;;;42.75;26.60;;;4.10;99.90;;;;;;5104624;28;20251;-87
2022/11/29 08:34:35;;;;;;;43.20;24.90;;;4.20;99.90;;;;;;5103418;28;20234;-87
2022/11/29 08:37:02;;;;;;;47.92;26.85;;;4.40;99.90;;;;;;5103796;28;20269;-88
2022/11/29 08:39:29;;;;;;;41.45;25.00;;;4.30;99.90;;;;;;5106692;28;20656;-87
2022/11/29 08:41:56;;;;;;;41.45;24.90;;;4.00;99.90;;;;;;5106902;28;20222;-87
2022/11/29 08:44:25;;;;;;;45.03;26.60;;;4.40;99.90;;;;;;5118979;28;20215;-87
2022/11/29 08:49:59;;;;;;;36.30;25.30;;;;;;;;;;5113000;28;20181;-87
2022/11/29 08:55:10;;;;;;;47.17;24.02;;;4.30;99.90;;;;;;5103772;28;20721;-87
2022/11/29 08:57:37;;;;;;;39.75;25.58;;;4.30;99.90;;;;;;5103203;28;20255;-87
2022/11/29 09:00:07;;;;;;;39.72;24.90;;;4.20;99.90;;;;;;5104150;28;20206;-87
2022/11/29 09:02:35;;;;;;;43.97;26.05;;;4.30;99.90;;;;;;5106330;28;20210;-87
2022/11/29 09:05:02;;;;;;;46.20;25.60;;;4.20;99.90;;;;;;5118958;28;20218;-87
2022/11/29 09:07:29;;;;;;;42.65;24.13;;;4.50;99.90;;;;;;5103312;28;20210;-87
2022/11/29 09:09:59;;;;;;;47.33;24.52;;;;;;;;;;5104041;28;20687;-87
2022/11/29 09:12:26;;;;;;;44.22;26.48;;;4.50;99.90;;;;;;5116902;28;20193;-87
2022/11/29 09:14:53;;;;;;;46.08;26.35;;;4.50;99.90;;;;;;5119224;28;20257;-88
2022/11/29 09:17:21;;;;;;;36.65;24.58;;;4.50;99.90;;;;;;5120285;28;20198;-87
2022/11/29 09:19:48;;;;;;;42.05;25.48;;;4.70;99.90;;;;;;5121179;28;20174;-88
2022/11/29 09:22:15;;;;;;;35.53;22.10;;;;;;;;;;5121149;28;20182;-89
2022/11/29 09:24:43;;;;;;;45.58;26.33;;;4.50;99.90;;;;;;5121188;28;20202;-89
2022/11/29 09:27:09;;;;;;;39.55;26.52;;;5.00;99.90;;;;;;5120960;28;20198;-87
2022/11/29 09:29:37;;;;;;;41.03;24.80;;;4.80;99.90;;;;;;5119617;28;20202;-87
2022/11/29 09:32:04;;;;;;;44.97;25.70;;;4.70;99.90;;;;;;5118247;28;20216;-87
2022/11/29 09:34:33;;;;;;;41.63;24.10;;;4.70;99.90;;;;;;5115271;28;20256;-87
2022/11/29 09:36:59;;;;;;;39.00;25.23;;;4.60;99.90;;;;;;5104322;28;20213;-87
2022/11/29 09:39:26;;;;;;;43.45;25.45;;;4.50;99.90;;;;;;5102799;28;20228;-87
2022/11/29 09:42:08;;;;;;;42.08;26.17;;;4.80;99.90;;;;;;5104499;28;20202;-87
2022/11/29 09:44:48;;;;;;;48.13;26.08;;;5.00;99.90;;;;;;5104516;28;20218;-87
2022/11/29 09:47:31;;;;;;;46.42;27.02;;;4.90;99.90;;;;;;5118089;28;20201;-87
2022/11/29 09:50:19;;;;;;;38.67;26.10;;;5.10;99.90;;;;;;5107937;28;20682;-88
2022/11/29 09:52:52;;;;;;;39.13;23.20;;;5.10;99.90;;;;;;5106038;28;20212;-87
2022/11/29 09:55:42;;;;;;;35.45;23.25;;;5.00;99.90;;;;;;5106446;28;20232;-87
2022/11/29 09:58:14;;;;;;;42.17;23.83;;;5.10;99.90;;;;;;5107621;28;20186;-88
2022/11/29 10:00:48;;;;;;;67.65;40.08;;;5.00;99.90;;;;;;5108593;28;20186;-87
2022/11/29 10:03:22;;;;;;;42.28;25.80;;;6.10;99.90;;;;;;5108424;28;20221;-87
2022/11/29 10:05:56;;;;;;;40.08;22.77;;;5.00;99.90;;;;;;5109572;28;20208;-87
2022/11/29 10:08:29;;;;;;;41.33;25.42;;;4.90;99.90;;;;;;5111230;28;20190;-87
2022/11/29 10:11:11;;;;;;;40.33;25.05;;;4.70;99.90;;;;;;5110065;28;20225;-87
2022/11/29 10:13:43;;;;;;;41.00;26.50;;;5.30;99.90;;;;;;5109812;28;20242;-87
2022/11/29 10:16:20;;;;;;;43.47;24.35;;;4.90;99.90;;;;;;5112800;28;20313;-87
2022/11/29 10:18:54;;;;;;;39.08;25.00;;;5.10;99.90;;;;;;5112780;28;20213;-87
2022/11/29 10:21:40;;;;;;;47.60;26.58;;;4.90;99.90;;;;;;5114079;28;20181;-87
2022/11/29 10:24:13;;;;;;;39.95;24.48;;;4.90;99.90;;;;;;5108355;28;20228;-88
2022/11/29 10:26:42;;;;;;;42.50;26.05;;;;;;;;;;5114430;28;20202;-87
2022/11/29 10:29:12;;;;;;;47.00;28.88;;;5.20;99.90;;;;;;5111846;28;20206;-87
2022/11/29 10:31:42;;;;;;;41.17;24.95;;;5.00;99.90;;;;;;5112261;28;20214;-87
2022/11/29 10:34:14;;;;;;;44.25;23.85;;;5.00;99.90;;;;;;5109237;28;20233;-87
2022/11/29 10:36:45;;;;;;;42.47;24.63;;;;;;;;;;5109262;28;20190;-87
2022/11/29 10:39:16;;;;;;;37.95;23.98;;;5.00;99.90;;;;;;5105895;28;20190;-88
2022/11/29 10:41:45;;;;;;;37.55;24.27;;;5.00;99.90;;;;;;5104604;28;20186;-87
2022/11/29 10:44:14;;;;;;;42.70;24.55;;;5.10;99.90;;;;;;5106988;28;20304;-87
2022/11/29 10:46:41;;;;;;;40.00;24.42;;;;;;;;;;5107116;28;20202;-88
2022/11/29 10:49:13;;;;;;;44.78;24.50;;;5.10;99.90;;;;;;5107854;28;20209;-87
2022/11/29 10:51:40;;;;;;;46.83;26.02;;;;;;;;;;5118830;28;20204;-89
2022/11/29 10:54:22;;;;;;;48.65;25.85;;;5.20;99.90;;;;;;5109554;28;20222;-88
2022/11/29 10:56:49;;;;;;;42.42;24.10;;;5.20;99.90;;;;;;5109436;28;20571;-87
2022/11/29 10:59:21;;;;;;;40.83;26.13;;;5.10;99.90;;;;;;5102378;28;20265;-87
2022/11/29 11:01:49;;;;;;;41.65;25.88;;;4.70;99.90;;;;;;5104098;28;20198;-87
2022/11/29 11:04:22;;;;;;;39.10;24.55;;;4.70;99.90;;;;;;5104489;28;20248;-87
2022/11/29 11:06:51;;;;;;;40.08;24.38;;;5.10;99.90;;;;;;5104455;28;20195;-87
2022/11/29 11:09:24;;;;;;;38.63;22.70;;;4.90;99.90;;;;;;5112792;28;20189;-87
2022/11/29 11:11:53;;;;;;;41.20;26.23;;;5.00;99.90;;;;;;5118839;28;20182;-87
2022/11/29 11:14:23;;;;;;;42.65;22.88;;;5.00;99.90;;;;;;5118298;28;20201;-87
2022/11/29 11:16:50;;;;;;;38.75;25.35;;;;;;;;;;5118242;28;20186;-86
2022/11/29 11:19:29;;;;;;;38.35;25.10;;;5.10;99.90;;;;;;5113634;28;20204;-86
2022/11/29 11:21:57;;;;;;;40.13;24.20;;;5.10;99.90;;;;;;5106919;28;20201;-86
2022/11/29 11:24:28;;;;;;;43.50;26.73;;;5.40;99.90;;;;;;5107036;28;20218;-86
2022/11/29 11:26:57;;;;;;;45.65;24.73;;;5.20;99.90;;;;;;5114456;28;20182;-87
2022/11/29 11:29:39;;;;;;;41.58;26.17;;;5.20;99.90;;;;;;5121193;22;20452;-86
2022/11/29 11:33:11;;;;;;;38.25;24.63;;;5.20;99.90;;;;;;5104656;28;20555;-84
2022/11/29 11:45:12;;;;;;;38.80;24.65;;;;;;;;;;5043606;28;20232;-86
2022/11/29 12:11:15;;;;;;;41.13;25.65;;;5.30;99.90;;;;;;5006856;28;20207;-84
2022/11/29 12:34:04;;;;;;;42.15;25.27;;;5.30;99.90;;;;;;4949594;29;20235;-84
2022/11/29 12:44:50;;;;;;;;;;;;;;;;;;;;;
2022/11/29 12:53:53;;;;;;;45.08;26.65;;;5.40;99.90;;;;;;3343606;26;20229;-83
2022/11/29 13:07:02;;;;;;;47.80;26.50;;;5.20;99.90;;;;;;5135679;22;20233;-86
2022/11/29 13:09:59;;;;;;;45.53;28.38;;;5.30;99.90;;;;;;5121595;27;20169;-85
2022/11/29 13:12:35;;;;;;;43.70;25.08;;;5.70;99.90;;;;;;5112929;27;20206;-86
2022/11/29 13:15:06;;;;;;;47.20;28.75;;;5.30;99.90;;;;;;5121049;27;20231;-85
2022/11/29 13:17:40;;;;;;;42.95;25.25;;;6.20;99.90;;;;;;5100502;28;20191;-86
2022/11/29 13:20:18;;;;;;;42.83;25.48;;;5.40;99.90;;;;;;5099163;28;20208;-87
2022/11/29 13:22:53;;;;;;;50.88;29.42;;;5.50;99.90;;;;;;5084850;28;20270;-87
2022/11/29 13:25:24;;;;;;;39.13;25.80;;;5.00;99.90;;;;;;5081544;28;20290;-88
2022/11/29 13:27:58;;;;;;;40.10;25.17;;;5.10;99.90;;;;;;5086691;28;20613;-87
2022/11/29 13:30:27;;;;;;;43.58;27.55;;;5.30;99.90;;;;;;5090542;28;20206;-87
2022/11/29 13:32:58;;;;;;;36.10;24.40;;;5.50;99.90;;;;;;5088378;28;20199;-87
2022/11/29 13:35:36;;;;;;;47.95;28.80;;;5.10;99.90;;;;;;5089585;28;20219;-86
2022/11/29 13:38:10;;;;;;;51.10;27.67;;;5.10;99.90;;;;;;5090417;28;20198;-86
2022/11/29 13:40:51;;;;;;;46.28;28.50;;;5.40;99.90;;;;;;5086575;28;20615;-86
2022/11/29 13:43:25;;;;;;;45.95;25.52;;;5.00;99.90;;;;;;5088810;28;20186;-87
2022/11/29 13:46:01;;;;;;;49.20;28.65;;;5.20;99.90;;;;;;5089038;28;20241;-87
2022/11/29 13:48:47;;;;;;;40.65;25.95;;;5.20;99.90;;;;;;5086213;28;20250;-86
2022/11/29 13:51:41;;;;;;;48.90;27.85;;;5.50;99.90;;;;;;5083407;28;20250;-86
2022/11/29 13:54:28;;;;;;;47.20;29.20;;;5.30;99.90;;;;;;5028461;28;20230;-86
2022/11/29 13:57:02;;;;;;;45.85;28.02;;;5.30;99.90;;;;;;5099317;28;20238;-87
2022/11/29 13:59:33;;;;;;;42.05;27.08;;;5.30;99.90;;;;;;5099934;28;20214;-86
2022/11/29 14:02:02;;;;;;;46.10;28.10;;;4.80;99.90;;;;;;5099891;28;20198;-86
2022/11/29 14:04:36;;;;;;;41.83;26.27;;;5.20;99.90;;;;;;5098284;28;20252;-88
2022/11/29 14:07:10;;;;;;;52.65;27.42;;;5.20;99.90;;;;;;5095659;28;20269;-86
2022/11/29 14:09:51;;;;;;;44.17;27.30;;;5.20;99.90;;;;;;5089947;28;20619;-87
2022/11/29 14:12:35;;;;;;;44.72;25.90;;;5.30;99.90;;;;;;5099728;28;20268;-87
2022/11/29 14:15:16;;;;;;;51.83;28.98;;;5.20;99.90;;;;;;5099158;28;20210;-87
2022/11/29 14:17:52;;;;;;;52.65;28.83;;;5.20;99.90;;;;;;5100024;28;20194;-86
2022/11/29 14:20:53;;;;;;;49.67;27.98;;;5.20;99.90;;;;;;5101420;28;20186;-86
2022/11/29 14:23:40;;;;;;;50.17;27.75;;;5.90;99.90;;;;;;5063905;28;20212;-85
2022/11/29 14:26:25;;;;;;;50.53;28.98;;;5.40;99.90;;;;;;5116583;28;20218;-86
2022/11/29 14:28:52;;;;;;;49.15;28.02;;;5.20;99.90;;;;;;5114482;28;20204;-86
2022/11/29 14:31:53;;;;;;;42.15;25.23;;;5.00;99.90;;;;;;5111481;28;20205;-87
2022/11/29 14:34:43;;;;;;;48.80;27.83;;;5.60;99.90;;;;;;5100799;28;20288;-88
2022/11/29 14:37:26;;;;;;;46.88;27.63;;;5.00;99.90;;;;;;5095312;28;20279;-87
2022/11/29 14:39:57;;;;;;;44.10;26.88;;;5.30;99.90;;;;;;5100067;28;20273;-87
2022/11/29 14:42:26;;;;;;;42.50;25.90;;;5.30;99.90;;;;;;5098526;28;20190;-87
2022/11/29 14:44:57;;;;;;;44.85;26.10;;;5.20;99.90;;;;;;5098078;28;20634;-87
2022/11/29 14:47:30;;;;;;;51.40;29.05;;;5.10;99.90;;;;;;5098915;28;20222;-87
2022/11/29 14:50:39;;;;;;;52.40;27.35;;;5.20;99.90;;;;;;5099227;28;20649;-87
2022/11/29 14:57:00;;;;;;;45.60;28.75;;;5.20;99.90;;;;;;5016213;28;20246;-87
2022/11/29 15:09:04;;;;;;;45.70;26.77;;;5.30;99.90;;;;;;5107653;28;20221;-88
2022/11/29 15:12:02;;;;;;;50.55;28.63;;;5.20;99.90;;;;;;5110537;28;20204;-88
2022/11/29 15:21:25;;;;;;;49.10;28.08;;;5.20;99.90;;;;;;5107675;28;20213;-87
2022/11/29 15:24:03;;;;;;;42.35;26.70;;;5.10;99.90;;;;;;5107567;28;20209;-87
2022/11/29 15:26:33;;;;;;;47.83;27.25;;;;;;;;;;5106708;28;20225;-87
2022/11/29 15:29:24;;;;;;;42.00;27.27;;;5.10;99.90;;;;;;5100394;28;20205;-88
2022/11/29 15:32:20;;;;;;;43.70;27.80;;;;;;;;;;5106113;28;20190;-88
2022/11/29 15:40:43;;;;;;;49.80;29.30;;;;;;;;;;5105219;28;20201;-87
2022/11/29 15:43:26;;;;;;;51.67;28.45;;;5.20;99.90;;;;;;5117038;28;20190;-88
2022/11/29 15:46:30;;;;;;;44.05;27.92;;;5.10;99.90;;;;;;5118618;28;20232;-88
2022/11/29 15:49:36;;;;;;;48.42;28.05;;;5.10;99.90;;;;;;5118679;28;20209;-89
2022/11/29 15:52:10;;;;;;;46.50;27.95;;;5.00;99.90;;;;;;5118034;28;20186;-89
2022/11/29 15:54:54;;;;;;;45.17;29.67;;;5.00;99.90;;;;;;5118223;28;20204;-89
2022/11/29 15:57:39;;;;;;;50.20;30.05;;;;;;;;;;5109225;28;20293;-88
2022/11/29 16:00:20;;;;;;;54.58;28.48;;;5.00;99.90;;;;;;5103452;28;20267;-88
2022/11/29 16:02:52;;;;;;;50.03;30.58;;;5.00;99.90;;;;;;5102090;28;20196;-88
2022/11/29 16:05:25;;;;;;;47.75;28.63;;;5.00;99.90;;;;;;5101774;28;20201;-88
2022/11/29 16:08:03;;;;;;;45.38;27.38;;;4.90;99.90;;;;;;5102147;28;20300;-88
2022/11/29 16:10:54;;;;;;;49.97;28.48;;;4.00;99.90;;;;;;5101498;28;20216;-87
2022/11/29 16:13:44;;;;;;;51.67;29.20;;;4.90;99.90;;;;;;5100450;28;20259;-88
2022/11/29 16:16:21;;;;;;;51.13;30.55;;;4.90;99.90;;;;;;5100856;28;20225;-88
2022/11/29 16:18:50;;;;;;;51.58;29.33;;;4.90;99.90;;;;;;5099586;28;20201;-88
2022/11/29 16:21:33;;;;;;;55.72;31.83;;;4.90;99.90;;;;;;5102351;28;20224;-87
2022/11/29 16:24:12;;;;;;;48.38;29.27;;;4.90;99.90;;;;;;5107824;28;20259;-88
2022/11/29 16:26:51;;;;;;;48.05;30.63;;;4.90;99.90;;;;;;5106768;28;20220;-88
2022/11/29 16:29:37;;;;;;;58.60;34.45;;;4.90;99.90;;;;;;5103944;28;20197;-87
2022/11/29 16:32:25;;;;;;;51.67;29.75;;;4.80;99.90;;;;;;5102606;28;20625;-88
2022/11/29 16:37:45;;;;;;;57.83;29.63;;;5.00;99.90;;;;;;5101576;28;20217;-88
2022/11/29 16:40:25;;;;;;;57.55;30.35;;;;;;;;;;5104465;28;20197;-88
2022/11/29 16:43:45;;;;;;;49.95;28.65;;;4.90;99.90;;;;;;5102374;28;20214;-88
2022/11/29 16:49:37;;;;;;;52.35;30.45;;;4.80;99.90;;;;;;5097770;28;20208;-88
2022/11/29 16:52:25;;;;;;;58.47;32.40;;;4.80;99.90;;;;;;5104549;28;20660;-87
2022/11/29 16:54:52;;;;;;;49.15;30.67;;;;;;;;;;5102562;28;20194;-88
2022/11/29 16:57:23;;;;;;;55.08;31.88;;;;;;;;;;5104938;28;20225;-88
2022/11/29 16:59:59;;;;;;;51.15;30.98;;;;;;;;;;5114355;28;20178;-87
2022/11/29 17:02:47;;;;;;;60.15;32.03;;;4.70;99.90;;;;;;5116801;28;20192;-87
2022/11/29 17:05:16;;;;;;;59.67;33.38;;;;;;;;;;5119878;28;20227;-87
2022/11/29 17:07:46;;;;;;;54.70;32.15;;;;;;;;;;5121207;28;20200;-87
2022/11/29 17:10:27;;;;;;;52.78;30.75;;;4.80;99.90;;;;;;5120220;28;20185;-87
2022/11/29 17:12:56;;;;;;;58.55;35.15;;;;;;;;;;5119143;28;20205;-87
2022/11/29 17:15:28;;;;;;;60.70;33.97;;;;;;;;;;5107617;28;20201;-87
2022/11/29 17:17:56;;;;;;;48.60;30.83;;;;;;;;;;5106100;28;20244;-87
2022/11/29 17:20:30;;;;;;;55.85;31.38;;;;;;;;;;5106248;28;20289;-87
2022/11/29 17:23:03;;;;;;;58.30;32.65;;;;;;;;;;5110865;28;20189;-88
2022/11/29 17:25:41;;;;;;;54.85;31.05;;;;;;;;;;5120669;28;20198;-89
2022/11/29 17:28:35;;;;;;;56.97;33.85;;;;;;;;;;5121021;28;20185;-87
2022/11/29 17:31:10;;;;;;;67.15;32.53;;;;;;;;;;5120998;28;20219;-87
2022/11/29 17:33:40;;;;;;;61.70;31.90;;;;;;;;;;5119761;28;20196;-87
2022/11/29 17:38:51;;;;;;;56.72;30.80;;;;;;;;;;5103814;28;20233;-87
2022/11/29 17:41:22;;;;;;;60.17;30.42;;;;;;;;;;5106526;28;20221;-86
2022/11/29 17:43:49;;;;;;;48.45;30.48;;;;;;;;;;5104965;28;20250;-87
2022/11/29 17:46:31;;;;;;;56.95;31.60;;;4.90;99.90;;;;;;5103649;28;20213;-88
2022/11/29 17:48:59;;;;;;;49.42;29.52;;;;;;;;;;5115180;28;20198;-88
2022/11/29 17:51:28;;;;;;;57.83;30.65;;;;;;;;;;5115552;28;20202;-88
2022/11/29 17:54:05;;;;;;;51.65;30.40;;;;;;;;;;5106915;28;20209;-88
2022/11/29 17:56:36;;;;;;;53.85;32.75;;;;;;;;;;5100821;28;20233;-88
2022/11/29 17:59:16;;;;;;;54.15;30.92;;;;;;;;;;5101451;28;20206;-88
2022/11/29 18:02:53;;;;;;;51.28;33.67;;;5.00;99.90;;;;;;5102691;28;20198;-87
2022/11/29 18:05:50;;;;;;;52.05;28.17;;;;;;;;;;5104949;28;20418;-88
2022/11/29 18:14:18;;;;;;;46.20;28.40;;;;;;;;;;4982237;28;20194;-89
2022/11/29 18:17:10;;;;;;;47.60;29.02;;;;;;;;;;4989520;28;20226;-88
2022/11/29 18:20:03;;;;;;;49.58;30.08;;;;;;;;;;4990916;28;20209;-88
2022/11/29 18:28:15;;;;;;;54.33;31.73;;;5.00;99.90;;;;;;4986686;28;20220;-88
2022/11/29 18:30:50;;;;;;;52.22;29.08;;;;;;;;;;4984035;28;20210;-88
2022/11/29 18:45:47;;;;;;;50.58;29.27;;;;;;;;;;5123925;28;20201;-88
2022/11/29 18:51:58;;;;;;;49.10;30.83;;;5.10;99.90;;;;;;5030581;28;20192;-88
2022/11/29 18:54:31;;;;;;;50.35;28.95;;;;;;;;;;5029338;28;20295;-88